sensor_id;sensor_type;location;lat;lon;timestamp;temperature;humidity
36548;DHT22;22551;52.206;4.856;2023-03-31T00:03:05;9.70;99.90
36548;DHT22;22551;52.206;4.856;2023-03-31T00:08:22;9.70;99.90
36548;DHT22;22551;52.206;4.856;2023-03-31T00:13:24;9.70;99.90
36548;DHT22;22551;52.206;4.856;2023-03-31T00:18:27;9.70;99.90
36548;DHT22;22551;52.206;4.856;2023-03-31T00:23:30;9.80;99.90
36548;DHT22;22551;52.206;4.856;2023-03-31T00:28:33;9.70;99.90
36548;DHT22;22551;52.206;4.856;2023-03-31T00:33:35;9.70;99.90
36548;DHT22;22551;52.206;4.856;2023-03-31T00:38:39;9.70;99.90
36548;DHT22;22551;52.206;4.856;2023-03-31T00:44:01;9.70;99.90
36548;DHT22;22551;52.206;4.856;2023-03-31T00:49:13;9.70;99.90
36548;DHT22;22551;52.206;4.856;2023-03-31T00:54:22;9.80;99.90
36548;DHT22;22551;52.206;4.856;2023-03-31T00:59:27;9.90;99.90
36548;DHT22;22551;52.206;4.856;2023-03-31T01:04:34;9.90;99.90
36548;DHT22;22551;52.206;4.856;2023-03-31T01:09:40;10.00;99.90
36548;DHT22;22551;52.206;4.856;2023-03-31T01:14:42;10.00;99.90
36548;DHT22;22551;52.206;4.856;2023-03-31T01:20:03;10.00;99.90
36548;DHT22;22551;52.206;4.856;2023-03-31T01:25:36;10.00;99.90
36548;DHT22;22551;52.206;4.856;2023-03-31T01:37:15;10.20;99.90
36548;DHT22;22551;52.206;4.856;2023-03-31T01:42:34;10.30;99.90
36548;DHT22;22551;52.206;4.856;2023-03-31T01:47:41;10.40;99.90
36548;DHT22;22551;52.206;4.856;2023-03-31T01:52:51;10.40;99.90
36548;DHT22;22551;52.206;4.856;2023-03-31T01:58:04;10.50;99.90
36548;DHT22;22551;52.206;4.856;2023-03-31T02:03:13;10.60;99.90
36548;DHT22;22551;52.206;4.856;2023-03-31T02:08:20;10.60;99.90
36548;DHT22;22551;52.206;4.856;2023-03-31T02:13:26;10.60;99.90
36548;DHT22;22551;52.206;4.856;2023-03-31T02:18:31;10.60;99.90
36548;DHT22;22551;52.206;4.856;2023-03-31T02:23:37;10.60;99.90
36548;DHT22;22551;52.206;4.856;2023-03-31T02:28:42;10.70;99.90
36548;DHT22;22551;52.206;4.856;2023-03-31T02:33:44;10.70;99.90
36548;DHT22;22551;52.206;4.856;2023-03-31T02:38:50;10.70;99.90
36548;DHT22;22551;52.206;4.856;2023-03-31T02:43:57;10.60;99.90
36548;DHT22;22551;52.206;4.856;2023-03-31T02:49:00;10.60;99.90
36548;DHT22;22551;52.206;4.856;2023-03-31T03:00:06;10.50;99.90
36548;DHT22;22551;52.206;4.856;2023-03-31T03:05:18;10.50;99.90
36548;DHT22;22551;52.206;4.856;2023-03-31T03:10:31;10.40;99.90
36548;DHT22;22551;52.206;4.856;2023-03-31T03:15:42;10.30;99.90
36548;DHT22;22551;52.206;4.856;2023-03-31T03:20:46;10.30;99.90
36548;DHT22;22551;52.206;4.856;2023-03-31T03:25:50;10.30;99.90
36548;DHT22;22551;52.206;4.856;2023-03-31T03:30:54;10.30;99.90
36548;DHT22;22551;52.206;4.856;2023-03-31T03:35:56;10.30;99.90
36548;DHT22;22551;52.206;4.856;2023-03-31T03:40:58;10.30;99.90
36548;DHT22;22551;52.206;4.856;2023-03-31T03:46:02;10.30;99.90
36548;DHT22;22551;52.206;4.856;2023-03-31T03:51:05;10.30;99.90
36548;DHT22;22551;52.206;4.856;2023-03-31T03:56:07;10.30;99.90
36548;DHT22;22551;52.206;4.856;2023-03-31T04:01:10;10.20;99.90
36548;DHT22;22551;52.206;4.856;2023-03-31T04:06:13;10.20;99.90
36548;DHT22;22551;52.206;4.856;2023-03-31T04:11:17;10.10;99.90
36548;DHT22;22551;52.206;4.856;2023-03-31T04:16:20;10.10;99.90
36548;DHT22;22551;52.206;4.856;2023-03-31T04:21:25;10.10;99.90
36548;DHT22;22551;52.206;4.856;2023-03-31T04:26:28;10.10;99.90
36548;DHT22;22551;52.206;4.856;2023-03-31T04:31:40;10.10;99.90
36548;DHT22;22551;52.206;4.856;2023-03-31T04:36:44;10.20;99.90
36548;DHT22;22551;52.206;4.856;2023-03-31T04:41:47;10.20;99.90
36548;DHT22;22551;52.206;4.856;2023-03-31T04:46:51;10.20;99.90
36548;DHT22;22551;52.206;4.856;2023-03-31T04:51:53;10.20;99.90
36548;DHT22;22551;52.206;4.856;2023-03-31T04:56:56;10.20;99.90
36548;DHT22;22551;52.206;4.856;2023-03-31T05:01:59;10.20;99.90
36548;DHT22;22551;52.206;4.856;2023-03-31T05:07:01;10.20;99.90
36548;DHT22;22551;52.206;4.856;2023-03-31T05:12:04;10.20;99.90
36548;DHT22;22551;52.206;4.856;2023-03-31T05:17:08;10.20;99.90
36548;DHT22;22551;52.206;4.856;2023-03-31T05:22:11;10.20;99.90
36548;DHT22;22551;52.206;4.856;2023-03-31T05:27:13;10.10;99.90
36548;DHT22;22551;52.206;4.856;2023-03-31T05:32:17;10.10;99.90
36548;DHT22;22551;52.206;4.856;2023-03-31T05:37:20;10.10;99.90
36548;DHT22;22551;52.206;4.856;2023-03-31T05:42:22;10.20;99.90
36548;DHT22;22551;52.206;4.856;2023-03-31T05:47:25;10.20;99.90
36548;DHT22;22551;52.206;4.856;2023-03-31T05:52:28;10.20;99.90
36548;DHT22;22551;52.206;4.856;2023-03-31T05:57:32;10.20;99.90
36548;DHT22;22551;52.206;4.856;2023-03-31T06:02:36;10.20;99.90
36548;DHT22;22551;52.206;4.856;2023-03-31T06:07:38;10.20;99.90
36548;DHT22;22551;52.206;4.856;2023-03-31T06:12:40;10.20;99.90
36548;DHT22;22551;52.206;4.856;2023-03-31T06:17:44;10.20;99.90
36548;DHT22;22551;52.206;4.856;2023-03-31T06:22:46;10.20;99.90
36548;DHT22;22551;52.206;4.856;2023-03-31T06:27:48;10.20;99.90
36548;DHT22;22551;52.206;4.856;2023-03-31T06:32:52;10.20;99.90
36548;DHT22;22551;52.206;4.856;2023-03-31T06:37:54;10.30;99.90
36548;DHT22;22551;52.206;4.856;2023-03-31T06:42:57;10.30;99.90
36548;DHT22;22551;52.206;4.856;2023-03-31T06:48:01;10.30;99.90
36548;DHT22;22551;52.206;4.856;2023-03-31T06:53:03;10.40;99.90
36548;DHT22;22551;52.206;4.856;2023-03-31T06:58:05;10.40;99.90
36548;DHT22;22551;52.206;4.856;2023-03-31T07:03:09;10.40;99.90
36548;DHT22;22551;52.206;4.856;2023-03-31T07:08:11;10.30;99.90
36548;DHT22;22551;52.206;4.856;2023-03-31T07:13:14;10.30;99.90
36548;DHT22;22551;52.206;4.856;2023-03-31T07:18:18;10.40;99.90
36548;DHT22;22551;52.206;4.856;2023-03-31T07:23:20;10.50;99.90
36548;DHT22;22551;52.206;4.856;2023-03-31T07:28:23;10.60;99.90
36548;DHT22;22551;52.206;4.856;2023-03-31T07:33:26;10.60;99.90
36548;DHT22;22551;52.206;4.856;2023-03-31T07:38:28;10.60;99.90
36548;DHT22;22551;52.206;4.856;2023-03-31T07:43:31;10.60;99.90
36548;DHT22;22551;52.206;4.856;2023-03-31T07:48:34;10.70;99.90
36548;DHT22;22551;52.206;4.856;2023-03-31T07:53:36;10.90;99.90
36548;DHT22;22551;52.206;4.856;2023-03-31T07:58:38;10.80;99.90
36548;DHT22;22551;52.206;4.856;2023-03-31T08:03:42;10.90;99.90
36548;DHT22;22551;52.206;4.856;2023-03-31T08:08:45;11.00;99.90
36548;DHT22;22551;52.206;4.856;2023-03-31T08:13:47;11.20;99.90
36548;DHT22;22551;52.206;4.856;2023-03-31T08:18:50;11.40;99.90
36548;DHT22;22551;52.206;4.856;2023-03-31T08:23:53;11.50;99.90
36548;DHT22;22551;52.206;4.856;2023-03-31T08:28:57;11.70;99.90
36548;DHT22;22551;52.206;4.856;2023-03-31T08:34:00;11.80;99.90
36548;DHT22;22551;52.206;4.856;2023-03-31T08:39:03;11.80;99.90
36548;DHT22;22551;52.206;4.856;2023-03-31T08:44:09;11.90;99.90
36548;DHT22;22551;52.206;4.856;2023-03-31T08:49:16;11.90;99.90
36548;DHT22;22551;52.206;4.856;2023-03-31T08:54:28;12.10;99.90
36548;DHT22;22551;52.206;4.856;2023-03-31T08:59:34;12.20;99.90
36548;DHT22;22551;52.206;4.856;2023-03-31T09:10:38;11.90;99.90
36548;DHT22;22551;52.206;4.856;2023-03-31T09:15:49;11.80;99.90
36548;DHT22;22551;52.206;4.856;2023-03-31T09:20:59;11.90;99.90
36548;DHT22;22551;52.206;4.856;2023-03-31T09:26:05;12.10;99.90
36548;DHT22;22551;52.206;4.856;2023-03-31T09:31:17;12.20;99.90
36548;DHT22;22551;52.206;4.856;2023-03-31T09:36:22;12.50;99.90
36548;DHT22;22551;52.206;4.856;2023-03-31T09:41:24;12.70;99.90
36548;DHT22;22551;52.206;4.856;2023-03-31T09:46:30;12.80;99.90
36548;DHT22;22551;52.206;4.856;2023-03-31T09:51:41;12.80;99.90
36548;DHT22;22551;52.206;4.856;2023-03-31T09:56:48;12.70;99.90
36548;DHT22;22551;52.206;4.856;2023-03-31T10:01:56;12.60;99.90
36548;DHT22;22551;52.206;4.856;2023-03-31T10:07:03;12.50;99.90
36548;DHT22;22551;52.206;4.856;2023-03-31T10:12:08;12.50;99.90
36548;DHT22;22551;52.206;4.856;2023-03-31T10:17:18;12.50;99.90
36548;DHT22;22551;52.206;4.856;2023-03-31T10:22:29;12.60;99.90
36548;DHT22;22551;52.206;4.856;2023-03-31T10:27:32;12.60;99.90
36548;DHT22;22551;52.206;4.856;2023-03-31T10:32:39;12.70;99.90
36548;DHT22;22551;52.206;4.856;2023-03-31T10:37:44;12.60;99.90
36548;DHT22;22551;52.206;4.856;2023-03-31T10:43:08;12.50;99.90
36548;DHT22;22551;52.206;4.856;2023-03-31T10:48:23;12.40;99.90
36548;DHT22;22551;52.206;4.856;2023-03-31T10:53:29;12.30;99.90
36548;DHT22;22551;52.206;4.856;2023-03-31T10:58:55;12.30;99.90
36548;DHT22;22551;52.206;4.856;2023-03-31T11:09:58;12.20;99.90
36548;DHT22;22551;52.206;4.856;2023-03-31T11:15:16;12.30;99.90
36548;DHT22;22551;52.206;4.856;2023-03-31T11:20:29;12.40;99.90
36548;DHT22;22551;52.206;4.856;2023-03-31T11:25:38;12.50;99.90
36548;DHT22;22551;52.206;4.856;2023-03-31T11:30:51;12.70;99.90
36548;DHT22;22551;52.206;4.856;2023-03-31T11:36:09;12.70;99.90
36548;DHT22;22551;52.206;4.856;2023-03-31T11:41:19;12.60;99.90
36548;DHT22;22551;52.206;4.856;2023-03-31T11:46:31;12.60;99.90
36548;DHT22;22551;52.206;4.856;2023-03-31T11:51:43;12.30;99.90
36548;DHT22;22551;52.206;4.856;2023-03-31T11:56:52;12.10;99.90
36548;DHT22;22551;52.206;4.856;2023-03-31T12:02:00;12.00;99.90
36548;DHT22;22551;52.206;4.856;2023-03-31T12:07:19;12.20;99.90
36548;DHT22;22551;52.206;4.856;2023-03-31T12:12:28;12.40;99.90
36548;DHT22;22551;52.206;4.856;2023-03-31T12:17:31;12.30;99.90
36548;DHT22;22551;52.206;4.856;2023-03-31T12:22:38;12.40;99.90
36548;DHT22;22551;52.206;4.856;2023-03-31T12:27:46;12.70;99.90
36548;DHT22;22551;52.206;4.856;2023-03-31T12:32:54;12.80;99.90
36548;DHT22;22551;52.206;4.856;2023-03-31T12:38:09;12.70;99.90
36548;DHT22;22551;52.206;4.856;2023-03-31T12:43:45;12.50;99.90
36548;DHT22;22551;52.206;4.856;2023-03-31T12:49:15;12.40;99.90
36548;DHT22;22551;52.206;4.856;2023-03-31T12:54:58;12.30;99.90
36548;DHT22;22551;52.206;4.856;2023-03-31T13:00:23;12.20;99.90
36548;DHT22;22551;52.206;4.856;2023-03-31T13:05:46;12.10;99.90
36548;DHT22;22551;52.206;4.856;2023-03-31T13:10:55;12.00;99.90
36548;DHT22;22551;52.206;4.856;2023-03-31T13:16:01;11.90;99.90
36548;DHT22;22551;52.206;4.856;2023-03-31T13:21:04;12.00;99.90
36548;DHT22;22551;52.206;4.856;2023-03-31T13:26:38;12.10;99.90
36548;DHT22;22551;52.206;4.856;2023-03-31T13:32:17;12.20;99.90
36548;DHT22;22551;52.206;4.856;2023-03-31T13:37:35;12.10;99.90
36548;DHT22;22551;52.206;4.856;2023-03-31T13:43:12;11.90;99.90
36548;DHT22;22551;52.206;4.856;2023-03-31T13:48:32;11.80;99.90
36548;DHT22;22551;52.206;4.856;2023-03-31T13:54:01;11.90;99.90
36548;DHT22;22551;52.206;4.856;2023-03-31T13:59:27;12.10;99.90
36548;DHT22;22551;52.206;4.856;2023-03-31T14:04:58;12.30;99.90
36548;DHT22;22551;52.206;4.856;2023-03-31T14:10:22;12.60;99.90
36548;DHT22;22551;52.206;4.856;2023-03-31T14:15:31;12.70;99.90
36548;DHT22;22551;52.206;4.856;2023-03-31T14:20:47;12.70;99.90
36548;DHT22;22551;52.206;4.856;2023-03-31T14:26:00;12.60;99.90
36548;DHT22;22551;52.206;4.856;2023-03-31T14:31:15;12.50;99.90
36548;DHT22;22551;52.206;4.856;2023-03-31T14:36:26;12.40;99.90
36548;DHT22;22551;52.206;4.856;2023-03-31T14:41:31;12.40;99.90
36548;DHT22;22551;52.206;4.856;2023-03-31T14:46:38;12.30;99.90
36548;DHT22;22551;52.206;4.856;2023-03-31T14:51:42;12.30;99.90
36548;DHT22;22551;52.206;4.856;2023-03-31T14:56:49;12.10;99.90
36548;DHT22;22551;52.206;4.856;2023-03-31T15:01:57;12.00;99.90
36548;DHT22;22551;52.206;4.856;2023-03-31T15:07:00;11.90;99.90
36548;DHT22;22551;52.206;4.856;2023-03-31T15:12:07;11.70;99.90
36548;DHT22;22551;52.206;4.856;2023-03-31T15:17:21;11.60;99.90
36548;DHT22;22551;52.206;4.856;2023-03-31T15:22:25;11.50;99.90
36548;DHT22;22551;52.206;4.856;2023-03-31T15:27:33;11.50;99.90
36548;DHT22;22551;52.206;4.856;2023-03-31T15:32:38;11.50;99.90
36548;DHT22;22551;52.206;4.856;2023-03-31T15:37:41;11.50;99.90
36548;DHT22;22551;52.206;4.856;2023-03-31T15:42:45;11.40;99.90
36548;DHT22;22551;52.206;4.856;2023-03-31T15:47:49;11.40;99.90
36548;DHT22;22551;52.206;4.856;2023-03-31T15:52:54;11.30;99.90
36548;DHT22;22551;52.206;4.856;2023-03-31T15:57:59;11.20;99.90
36548;DHT22;22551;52.206;4.856;2023-03-31T16:03:10;11.10;99.90
36548;DHT22;22551;52.206;4.856;2023-03-31T16:08:19;11.10;99.90
36548;DHT22;22551;52.206;4.856;2023-03-31T16:13:24;11.10;99.90
36548;DHT22;22551;52.206;4.856;2023-03-31T16:18:33;11.20;99.90
36548;DHT22;22551;52.206;4.856;2023-03-31T16:23:39;11.20;99.90
36548;DHT22;22551;52.206;4.856;2023-03-31T16:28:48;11.20;99.90
36548;DHT22;22551;52.206;4.856;2023-03-31T16:33:55;11.20;99.90
36548;DHT22;22551;52.206;4.856;2023-03-31T16:38:59;11.10;99.90
36548;DHT22;22551;52.206;4.856;2023-03-31T16:44:04;11.20;99.90
36548;DHT22;22551;52.206;4.856;2023-03-31T16:49:08;11.00;99.90
36548;DHT22;22551;52.206;4.856;2023-03-31T16:54:10;10.90;99.90
36548;DHT22;22551;52.206;4.856;2023-03-31T16:59:12;10.90;99.90
36548;DHT22;22551;52.206;4.856;2023-03-31T17:04:16;10.80;99.90
36548;DHT22;22551;52.206;4.856;2023-03-31T17:09:19;10.80;99.90
36548;DHT22;22551;52.206;4.856;2023-03-31T17:14:21;10.80;99.90
36548;DHT22;22551;52.206;4.856;2023-03-31T17:19:25;10.90;99.90
36548;DHT22;22551;52.206;4.856;2023-03-31T17:24:27;10.80;99.90
36548;DHT22;22551;52.206;4.856;2023-03-31T17:29:30;10.80;99.90
36548;DHT22;22551;52.206;4.856;2023-03-31T17:34:33;10.70;99.90
36548;DHT22;22551;52.206;4.856;2023-03-31T17:39:35;10.70;99.90
36548;DHT22;22551;52.206;4.856;2023-03-31T17:44:38;10.60;99.90
36548;DHT22;22551;52.206;4.856;2023-03-31T17:49:42;10.60;99.90
36548;DHT22;22551;52.206;4.856;2023-03-31T17:54:45;10.60;99.90
36548;DHT22;22551;52.206;4.856;2023-03-31T17:59:47;10.50;99.90
36548;DHT22;22551;52.206;4.856;2023-03-31T18:04:51;10.50;99.90
36548;DHT22;22551;52.206;4.856;2023-03-31T18:09:54;10.50;99.90
36548;DHT22;22551;52.206;4.856;2023-03-31T18:14:57;10.50;99.90
36548;DHT22;22551;52.206;4.856;2023-03-31T18:20:00;10.50;99.90
36548;DHT22;22551;52.206;4.856;2023-03-31T18:25:03;10.50;99.90
36548;DHT22;22551;52.206;4.856;2023-03-31T18:30:07;10.50;99.90
36548;DHT22;22551;52.206;4.856;2023-03-31T18:35:11;10.50;99.90
36548;DHT22;22551;52.206;4.856;2023-03-31T18:40:13;10.50;99.90
36548;DHT22;22551;52.206;4.856;2023-03-31T18:45:16;10.50;99.90
36548;DHT22;22551;52.206;4.856;2023-03-31T18:50:20;10.50;99.90
36548;DHT22;22551;52.206;4.856;2023-03-31T18:55:23;10.50;99.90
36548;DHT22;22551;52.206;4.856;2023-03-31T19:00:25;10.50;99.90
36548;DHT22;22551;52.206;4.856;2023-03-31T19:05:29;10.50;99.90
36548;DHT22;22551;52.206;4.856;2023-03-31T19:10:31;10.50;99.90
36548;DHT22;22551;52.206;4.856;2023-03-31T19:15:33;10.50;99.90
36548;DHT22;22551;52.206;4.856;2023-03-31T19:20:38;10.40;99.90
36548;DHT22;22551;52.206;4.856;2023-03-31T19:25:40;10.40;99.90
36548;DHT22;22551;52.206;4.856;2023-03-31T19:30:42;10.40;99.90
36548;DHT22;22551;52.206;4.856;2023-03-31T19:35:47;10.40;99.90
36548;DHT22;22551;52.206;4.856;2023-03-31T19:40:50;10.40;99.90
36548;DHT22;22551;52.206;4.856;2023-03-31T19:45:52;10.30;99.90
36548;DHT22;22551;52.206;4.856;2023-03-31T19:50:58;10.30;99.90
36548;DHT22;22551;52.206;4.856;2023-03-31T19:56:05;10.30;99.90
36548;DHT22;22551;52.206;4.856;2023-03-31T20:01:18;10.30;99.90
36548;DHT22;22551;52.206;4.856;2023-03-31T20:06:25;10.30;99.90
36548;DHT22;22551;52.206;4.856;2023-03-31T20:11:28;10.30;99.90
36548;DHT22;22551;52.206;4.856;2023-03-31T20:16:31;10.30;99.90
36548;DHT22;22551;52.206;4.856;2023-03-31T20:21:36;10.20;99.90
36548;DHT22;22551;52.206;4.856;2023-03-31T20:26:39;10.20;99.90
36548;DHT22;22551;52.206;4.856;2023-03-31T20:31:42;10.20;99.90
36548;DHT22;22551;52.206;4.856;2023-03-31T20:36:46;10.20;99.90
36548;DHT22;22551;52.206;4.856;2023-03-31T20:41:51;10.20;99.90
36548;DHT22;22551;52.206;4.856;2023-03-31T20:46:54;10.20;99.90
36548;DHT22;22551;52.206;4.856;2023-03-31T20:51:59;10.20;99.90
36548;DHT22;22551;52.206;4.856;2023-03-31T20:57:02;10.20;99.90
36548;DHT22;22551;52.206;4.856;2023-03-31T21:02:08;10.20;99.90
36548;DHT22;22551;52.206;4.856;2023-03-31T21:07:12;10.20;99.90
36548;DHT22;22551;52.206;4.856;2023-03-31T21:12:14;10.30;99.90
36548;DHT22;22551;52.206;4.856;2023-03-31T21:17:17;10.20;99.90
36548;DHT22;22551;52.206;4.856;2023-03-31T21:22:20;10.30;99.90
36548;DHT22;22551;52.206;4.856;2023-03-31T21:27:23;10.30;99.90
36548;DHT22;22551;52.206;4.856;2023-03-31T21:32:27;10.30;99.90
36548;DHT22;22551;52.206;4.856;2023-03-31T21:37:32;10.30;99.90
36548;DHT22;22551;52.206;4.856;2023-03-31T21:42:36;10.20;99.90
36548;DHT22;22551;52.206;4.856;2023-03-31T21:47:38;10.30;99.90
36548;DHT22;22551;52.206;4.856;2023-03-31T21:52:41;10.30;99.90
36548;DHT22;22551;52.206;4.856;2023-03-31T21:57:44;10.30;99.90
36548;DHT22;22551;52.206;4.856;2023-03-31T22:02:46;10.30;99.90
36548;DHT22;22551;52.206;4.856;2023-03-31T22:07:49;10.30;99.90
36548;DHT22;22551;52.206;4.856;2023-03-31T22:12:52;10.30;99.90
36548;DHT22;22551;52.206;4.856;2023-03-31T22:17:54;10.30;99.90
36548;DHT22;22551;52.206;4.856;2023-03-31T22:22:58;10.20;99.90
36548;DHT22;22551;52.206;4.856;2023-03-31T22:28:00;10.10;99.90
36548;DHT22;22551;52.206;4.856;2023-03-31T22:33:03;10.10;99.90
36548;DHT22;22551;52.206;4.856;2023-03-31T22:38:06;10.10;99.90
36548;DHT22;22551;52.206;4.856;2023-03-31T22:43:08;10.10;99.90
36548;DHT22;22551;52.206;4.856;2023-03-31T22:48:10;10.00;99.90
36548;DHT22;22551;52.206;4.856;2023-03-31T22:53:14;10.10;99.90
36548;DHT22;22551;52.206;4.856;2023-03-31T22:58:17;10.00;99.90
36548;DHT22;22551;52.206;4.856;2023-03-31T23:03:19;10.00;99.90
36548;DHT22;22551;52.206;4.856;2023-03-31T23:08:22;10.00;99.90
36548;DHT22;22551;52.206;4.856;2023-03-31T23:13:26;10.00;99.90
36548;DHT22;22551;52.206;4.856;2023-03-31T23:18:29;9.90;99.90
36548;DHT22;22551;52.206;4.856;2023-03-31T23:23:33;9.80;99.90
36548;DHT22;22551;52.206;4.856;2023-03-31T23:28:36;9.90;99.90
36548;DHT22;22551;52.206;4.856;2023-03-31T23:33:38;9.80;99.90
36548;DHT22;22551;52.206;4.856;2023-03-31T23:38:42;9.90;99.90
36548;DHT22;22551;52.206;4.856;2023-03-31T23:43:45;9.80;99.90
36548;DHT22;22551;52.206;4.856;2023-03-31T23:48:47;9.80;99.90
36548;DHT22;22551;52.206;4.856;2023-03-31T23:53:51;9.80;99.90
36548;DHT22;22551;52.206;4.856;2023-03-31T23:58:53;9.80;99.90
